TimePST,TemperatureF,Dew PointF,Humidity,Sea Level PressureIn,VisibilityMPH,Wind Direction,Wind SpeedMPH,Gust SpeedMPH,PrecipitationIn,Events,Conditions,WindDirDegrees,DateUTC
12:53 AM,44.1,34.0,68,30.34,10.0,NW,4.6,-,N/A,,Overcast,310,2013-02-11 08:53:00
1:53 AM,43.0,34.0,71,30.35,10.0,WNW,3.5,-,N/A,,Overcast,300,2013-02-11 09:53:00
2:53 AM,43.0,34.0,71,30.35,10.0,West,3.5,-,N/A,,Overcast,270,2013-02-11 10:53:00
3:53 AM,43.0,34.0,71,30.34,10.0,Calm,Calm,-,N/A,,Overcast,0,2013-02-11 11:53:00
4:53 AM,41.0,35.1,79,30.35,10.0,Calm,Calm,-,N/A,,Overcast,0,2013-02-11 12:53:00
5:53 AM,42.1,35.1,76,30.36,10.0,Calm,Calm,-,N/A,,Overcast,0,2013-02-11 13:53:00
6:53 AM,42.1,35.1,76,30.36,10.0,Calm,Calm,-,N/A,,Overcast,0,2013-02-11 14:53:00
7:53 AM,43.0,35.1,74,30.37,10.0,Calm,Calm,-,N/A,,Overcast,0,2013-02-11 15:53:00
8:53 AM,44.1,35.1,71,30.37,10.0,Calm,Calm,-,N/A,,Overcast,0,2013-02-11 16:53:00
9:53 AM,45.0,35.1,68,30.39,10.0,Calm,Calm,-,N/A,,Overcast,0,2013-02-11 17:53:00
10:30 AM,44.6,35.6,71,30.39,10.0,Calm,Calm,-,N/A,,Overcast,0,2013-02-11 18:30:00
10:53 AM,45.0,35.1,68,30.39,10.0,Calm,Calm,-,N/A,,Overcast,0,2013-02-11 18:53:00
11:53 AM,45.0,36.0,71,30.39,10.0,Calm,Calm,-,0.00,,Overcast,0,2013-02-11 19:53:00
12:53 PM,46.0,37.9,73,30.39,10.0,SE,4.6,-,N/A,,Overcast,140,2013-02-11 20:53:00
1:48 PM,42.8,39.2,87,30.38,3.0,SSE,5.8,-,N/A,,Overcast,160,2013-02-11 21:48:00
1:53 PM,43.0,39.9,89,30.38,2.5,SSE,5.8,-,N/A,,Overcast,160,2013-02-11 21:53:00
2:53 PM,44.1,39.9,85,30.38,8.0,SSE,4.6,-,N/A,,Overcast,150,2013-02-11 22:53:00
3:14 PM,44.6,39.2,81,30.38,7.0,Calm,Calm,-,N/A,,Overcast,0,2013-02-11 23:14:00
3:38 PM,44.6,39.2,81,30.38,5.0,SSE,3.5,-,N/A,,Overcast,160,2013-02-11 23:38:00
3:53 PM,44.1,41.0,89,30.38,3.0,SSE,4.6,-,N/A,,Overcast,150,2013-02-11 23:53:00
3:56 PM,44.6,41.0,87,30.38,2.5,SE,4.6,-,N/A,,Overcast,140,2013-02-11 23:56:00
4:10 PM,44.6,41.0,87,30.38,2.0,SE,4.6,-,N/A,,Overcast,130,2013-02-12 00:10:00
4:28 PM,44.6,41.0,87,30.38,3.0,ESE,3.5,-,N/A,,Overcast,120,2013-02-12 00:28:00
4:53 PM,44.1,41.0,89,30.38,6.0,SE,4.6,-,N/A,,Overcast,130,2013-02-12 00:53:00
5:46 PM,44.6,41.0,87,30.38,4.0,SE,4.6,-,N/A,,Overcast,130,2013-02-12 01:46:00
5:53 PM,43.0,41.0,93,30.38,4.0,ESE,4.6,-,N/A,,Overcast,120,2013-02-12 01:53:00
6:53 PM,44.1,41.0,89,30.38,2.5,East,4.6,-,0.01,,Overcast,90,2013-02-12 02:53:00
7:09 PM,44.6,41.0,87,30.38,3.0,ESE,3.5,-,N/A,,Overcast,110,2013-02-12 03:09:00
7:53 PM,44.1,41.0,89,30.38,6.0,ESE,3.5,-,N/A,,Overcast,110,2013-02-12 03:53:00
8:21 PM,44.6,41.0,87,30.38,6.0,Calm,Calm,-,N/A,,Overcast,0,2013-02-12 04:21:00
8:53 PM,44.1,41.0,89,30.38,6.0,East,4.6,-,N/A,,Overcast,100,2013-02-12 04:53:00
9:33 PM,44.6,41.0,87,30.38,6.0,Calm,Calm,-,N/A,,Overcast,0,2013-02-12 05:33:00
9:53 PM,44.1,42.1,93,30.38,5.0,Calm,Calm,-,N/A,,Overcast,0,2013-02-12 05:53:00
10:53 PM,44.1,41.0,89,30.39,7.0,Calm,Calm,-,N/A,,Overcast,0,2013-02-12 06:53:00
11:53 PM,44.1,42.1,93,30.40,4.0,Calm,Calm,-,N/A,,Overcast,0,2013-02-12 07:53:00